Thursday, January 18, 2018, 11:02 PM EST
Back to Local

KFME, Fort Meade / Tipton

Location: Laurel, MD, United States Lat: 39.083
Local Time: 11:02 PM EST ( 4:02 GMT) Lon: -76.767
Time Zone: US/Eastern Elev: 150 ft

Show me the last for .
Show Decoded

2018-01-18 22:36 METAR KFME 190336Z AUTO 00000KT 10SM CLR M05/M08 A3015 RMK AO1 =
2018-01-18 22:15 METAR KFME 190315Z AUTO 00000KT 10SM CLR M05/M09 A3015 RMK AO1 =
2018-01-18 21:57 METAR KFME 190257Z AUTO 00000KT 10SM CLR M05/M08 A3014 RMK AO1 =
2018-01-18 21:36 METAR KFME 190236Z AUTO 00000KT 10SM CLR M05/M08 A3014 RMK AO1 =
2018-01-18 21:15 METAR KFME 190215Z AUTO 00000KT 10SM CLR M03/M08 A3013 RMK AO1 =
2018-01-18 20:57 METAR KFME 190157Z AUTO 00000KT 10SM CLR M04/M07 A3013 RMK AO1 =
2018-01-18 20:36 METAR KFME 190136Z AUTO 00000KT 10SM CLR M03/M08 A3012 RMK AO1 =
2018-01-18 20:15 METAR KFME 190115Z AUTO 00000KT 10SM CLR M03/M10 A3012 RMK AO1 =
2018-01-18 19:57 METAR KFME 190057Z AUTO 00000KT 10SM CLR M02/M09 A3011 RMK AO1 =
2018-01-18 19:36 METAR KFME 190036Z AUTO 00000KT 10SM CLR M01/M07 A3011 RMK AO1 =
2018-01-18 19:15 METAR KFME 190015Z AUTO 26004KT 10SM CLR M01/M11 A3011 RMK AO1 =
2018-01-18 18:57 METAR KFME 182357Z AUTO 29004KT 10SM CLR 00/M12 A3010 RMK AO1 =
2018-01-18 18:36 METAR KFME 182336Z AUTO 26005KT 10SM CLR 00/M11 A3009 RMK AO1 =
2018-01-18 18:15 METAR KFME 182315Z AUTO 27006KT 10SM CLR 01/M11 A3009 RMK AO1 =
2018-01-18 17:57 METAR KFME 182257Z AUTO 27009KT 10SM CLR 01/M11 A3007 RMK AO1 =
2018-01-18 17:36 METAR KFME 182236Z AUTO 28007KT 10SM CLR 02/M13 A3006 RMK AO1 =
2018-01-18 17:15 METAR KFME 182215Z AUTO 29006KT 10SM CLR 03/M13 A3006 RMK AO1 =
2018-01-18 16:57 METAR KFME 182157Z AUTO 28007KT 10SM CLR 03/M13 A3006 RMK AO1 =
2018-01-18 16:36 METAR KFME 182136Z AUTO 28010G15KT 10SM CLR 04/M12 A3005 RMK AO1 =
2018-01-18 16:15 METAR KFME 182115Z AUTO 27011G18KT 10SM CLR 05/M14 A3004 RMK AO1 =
2018-01-18 15:57 METAR KFME 182057Z AUTO 27012KT 10SM CLR 05/M13 A3004 RMK AO1 =
2018-01-18 15:36 METAR KFME 182036Z AUTO 28009G15KT 10SM CLR 05/M13 A3004 RMK AO1 =
2018-01-18 15:15 METAR KFME 182015Z AUTO 28011G16KT 10SM CLR 05/M13 A3004 RMK AO1 =
2018-01-18 14:57 METAR KFME 181957Z AUTO 30014G19KT 10SM CLR 05/M13 A3005 RMK AO1 =
2018-01-18 14:36 METAR KFME 181936Z AUTO 28012G16KT 10SM CLR 05/M12 A3005 RMK AO1 =
2018-01-18 14:15 METAR KFME 181915Z AUTO 28009G15KT 10SM CLR 04/M12 A3005 RMK AO1 =
2018-01-18 13:57 METAR KFME 181857Z AUTO 31011G20KT 270V340 10SM CLR 04/M12 A3006 RMK AO1 =
2018-01-18 13:36 METAR KFME 181836Z AUTO 28010G17KT 250V310 10SM CLR 03/M12 A3007 RMK AO1 =
2018-01-18 13:15 METAR KFME 181815Z AUTO 28010KT 10SM CLR 02/M12 A3009 RMK AO1 =
2018-01-18 12:57 METAR KFME 181757Z AUTO 29010G14KT 10SM CLR 02/M12 A3010 RMK AO1 =
2018-01-18 12:36 METAR KFME 181736Z AUTO 29011G15KT 10SM CLR 01/M11 A3011 RMK AO1 =
2018-01-18 12:15 METAR KFME 181715Z AUTO 27013G17KT 10SM CLR 01/M12 A3013 RMK AO1 =
2018-01-18 11:57 METAR KFME 181657Z AUTO 26010G16KT 240V300 10SM CLR 01/M12 A3014 RMK AO1 =
2018-01-18 11:36 METAR KFME 181636Z AUTO 28009G17KT 10SM CLR 00/M12 A3016 RMK AO1 =
2018-01-18 11:15 METAR KFME 181615Z AUTO 29014G21KT 10SM CLR 00/M13 A3016 RMK AO1 =
2018-01-18 10:57 METAR KFME 181557Z AUTO 30013G21KT 10SM CLR 00/M13 A3017 RMK AO1 =
2018-01-18 10:36 METAR KFME 181536Z AUTO 30014G21KT 260V320 10SM CLR M01/M13 A3018 RMK AO1 =
2018-01-18 10:15 METAR KFME 181515Z AUTO 29014G20KT 10SM CLR M02/M13 A3019 RMK AO1 =
2018-01-18 09:57 METAR KFME 181457Z AUTO 28010G16KT 250V320 10SM CLR M02/M13 A3019 RMK AO1 =
2018-01-18 09:36 METAR KFME 181436Z AUTO 28008G16KT 250V310 10SM CLR M03/M13 A3020 RMK AO1 =
2018-01-18 09:15 METAR KFME 181415Z AUTO 28011G17KT 10SM CLR M03/M13 A3020 RMK AO1 =
2018-01-18 08:57 METAR KFME 181357Z AUTO 28011G16KT 10SM CLR M05/M13 A3019 RMK AO1 =
2018-01-18 08:36 METAR KFME 181336Z AUTO 28007KT 10SM CLR M05/M13 A3020 RMK AO1 =
2018-01-18 08:15 METAR KFME 181315Z AUTO 30007G15KT 10SM CLR M06/M13 A3019 RMK AO1 =
2018-01-18 07:57 METAR KFME 181257Z AUTO 29010KT 10SM CLR M07/M13 A3019 RMK AO1 =
2018-01-18 07:36 METAR KFME 181236Z AUTO 29006KT 10SM CLR M08/M13 A3020 RMK AO1 =
2018-01-18 07:15 METAR KFME 181215Z AUTO 28006KT 10SM CLR M08/M13 A3020 RMK AO1 =
2018-01-18 06:57 METAR KFME 181157Z AUTO 28006KT 10SM CLR M09/M13 A3020 RMK AO1 =
2018-01-18 06:36 METAR KFME 181136Z AUTO 29004KT 10SM CLR M10/M13 A3020 RMK AO1 =
2018-01-18 06:15 METAR KFME 181115Z AUTO 00000KT 10SM CLR M11/M13 A3020 RMK AO1 =
2018-01-18 05:57 METAR KFME 181057Z AUTO 00000KT 10SM CLR M11/M13 A3020 RMK AO1 =
2018-01-18 05:36 METAR KFME 181036Z AUTO 00000KT 10SM CLR M10/M13 A3019 RMK AO1 =
2018-01-18 05:15 METAR KFME 181015Z AUTO 26004KT 10SM CLR M10/M13 A3018 RMK AO1 =
2018-01-18 04:57 METAR KFME 180957Z AUTO 00000KT 10SM CLR M10/M13 A3018 RMK AO1 =
2018-01-18 04:36 METAR KFME 180936Z AUTO 00000KT 10SM CLR M09/M13 A3018 RMK AO1 =
2018-01-18 04:15 METAR KFME 180915Z AUTO 26003KT 10SM CLR M08/M13 A3019 RMK AO1 =
2018-01-18 03:57 METAR KFME 180857Z AUTO 00000KT 10SM CLR M08/M13 A3020 RMK AO1 =
2018-01-18 03:36 METAR KFME 180836Z AUTO 28004KT 10SM CLR M08/M13 A3019 RMK AO1 =
2018-01-18 03:15 METAR KFME 180815Z AUTO 30009KT 10SM CLR M08/M13 A3018 RMK AO1 =
2018-01-18 02:57 METAR KFME 180757Z AUTO 30009G16KT 10SM SCT120 M08/M13 A3018 RMK AO1 =
2018-01-18 02:36 METAR KFME 180736Z AUTO 30008KT 10SM BKN120 M08/M13 A3021 RMK AO1 =
2018-01-18 02:15 METAR KFME 180715Z AUTO 29005KT 10SM SCT120 M08/M13 A3024 RMK AO1 =
2018-01-18 01:57 METAR KFME 180657Z AUTO 30005KT 10SM SCT100 M08/M13 A3025 RMK AO1 =
2018-01-18 01:36 METAR KFME 180636Z AUTO 28005KT 10SM OVC100 M08/M12 A3026 RMK AO1 =
2018-01-18 01:15 METAR KFME 180615Z AUTO 27005KT 10SM OVC110 M07/M12 A3027 RMK AO1 =
2018-01-18 00:57 METAR KFME 180557Z AUTO 26005KT 10SM BKN120 M07/M12 A3029 RMK AO1 =
2018-01-18 00:36 METAR KFME 180536Z AUTO 27004KT 10SM CLR M07/M12 A3029 RMK AO1 =
2018-01-18 00:15 METAR KFME 180515Z AUTO 27004KT 10SM CLR M07/M12 A3030 RMK AO1 =
2018-01-17 23:57 METAR KFME 180457Z AUTO 32004KT 10SM CLR M07/M13 A3030 RMK AO1 =
2018-01-17 23:36 METAR KFME 180436Z AUTO 31006KT 10SM CLR M08/M13 A3031 RMK AO1 =
2018-01-17 23:15 METAR KFME 180415Z AUTO 32005KT 10SM CLR M07/M13 A3032 RMK AO1 =

Support USWX by starting your Amazon purchase here.